Terminal Aerodrome Forecast
Issued by NWS San Angelo, TX

Home | Current Version | Previous Version | Text Only | Print | Product List | Glossary On
Versions: 1 2 3 4 5 6 7 8 9 10 11 12 13
425
FTUS44 KSJT 261120
TAFSJT
TAF
KSJT 261120Z 2612/2712 17006KT P6SM SCT250
     FM261400 20015G20KT P6SM SKC
     FM261600 24020G25KT P6SM SKC
     FM270000 27012KT P6SM SKC=

USA.gov is the U.S. government's official web portal to all federal, state and local government web resources and services.